Time;durP1;ratioP1;P1;durP2;ratioP2;P2;SDS_P1;SDS_P2;PMS_P1;PMS_P2;Temp;Humidity;BMP_temperature;BMP_pressure;BME280_temperature;BME280_humidity;BME280_pressure;Samples;Min_cycle;Max_cycle;Signal;HPM_P1;HPM_P2
2022/10/03 00:00:57;;;;;;;17.33;4.28;;;;;;;;;;4976096;28;93767;-73
2022/10/03 00:03:43;;;;;;;9.65;3.67;;;;;;;;;;4975269;28;94480;-73
2022/10/03 00:06:13;;;;;;;25.90;4.18;;;;;;;;;;4977123;28;91549;-73
2022/10/03 00:09:03;;;;;;;19.60;3.95;;;;;;;;;;4976407;28;93342;-73
2022/10/03 00:11:42;;;;;;;19.17;3.90;;;;;;;;;;4989037;28;93488;-73
2022/10/03 00:14:31;;;;;;;16.70;4.22;;;;;;;;;;4994196;28;94794;-73
2022/10/03 00:17:20;;;;;;;18.85;3.42;;;;;;;;;;4997991;28;96394;-74
2022/10/03 00:19:55;;;;;;;14.73;3.17;;;;;;;;;;4996178;28;93092;-73
2022/10/03 00:22:21;;;;;;;15.30;3.10;;;;;;;;;;4995580;28;93962;-73
2022/10/03 00:25:00;;;;;;;10.32;3.30;;;;;;;;;;4994812;28;94307;-73
2022/10/03 00:27:33;;;;;;;20.38;3.85;;;;;;;;;;4999177;28;92494;-73
2022/10/03 00:30:03;;;;;;;16.65;3.53;;;;;;;;;;5015609;28;93250;-73
2022/10/03 00:32:57;;;;;;;19.05;3.10;;;;;;;;;;5015319;28;91558;-72
2022/10/03 00:35:31;;;;;;;15.23;3.15;;;;;;;;;;5003740;28;92479;-73
2022/10/03 00:38:01;;;;;;;14.25;3.85;;;;;;;;;;4994607;28;93070;-74
2022/10/03 00:40:45;;;;;;;20.67;3.05;;;;;;;;;;4997331;28;96194;-73
2022/10/03 00:43:30;;;;;;;22.73;4.65;;;;;;;;;;4995520;28;95691;-73
2022/10/03 00:45:56;;;;;;;15.38;2.67;;;;;;;;;;4995212;28;92295;-73
2022/10/03 00:48:34;;;;;;;20.95;4.38;;;;;;;;;;4995478;28;92461;-73
2022/10/03 00:51:11;;;;;;;12.00;3.10;;;;;;;;;;4995665;28;93945;-73
2022/10/03 00:53:37;;;;;;;12.57;3.53;;;;;;;;;;4994020;28;94289;-73
2022/10/03 00:56:15;;;;;;;13.77;3.03;;;;;;;;;;4995122;28;92497;-73
2022/10/03 00:58:48;;;;;;;13.10;2.67;;;;;;;;;;4995959;28;93903;-73
2022/10/03 01:01:14;;;;;;;;;;;;;;;;;;4995103;28;93355;-73
2022/10/03 01:03:45;;;;;;;11.38;2.45;;;;;;;;;;5019853;28;92456;-73
2022/10/03 01:06:32;;;;;;;13.13;3.00;;;;;;;;;;5012509;28;95828;-73
2022/10/03 01:09:11;;;;;;;10.82;2.85;;;;;;;;;;5014921;28;92511;-73
2022/10/03 01:11:40;;;;;;;12.40;2.85;;;;;;;;;;5014920;28;94248;-73
2022/10/03 01:14:22;;;;;;;10.82;2.75;;;;;;;;;;5013908;28;93390;-72
2022/10/03 01:17:03;;;;;;;9.45;2.72;;;;;;;;;;5015191;28;92330;-73
2022/10/03 01:19:46;;;;;;;10.57;2.70;;;;;;;;;;5014139;28;93265;-72
2022/10/03 01:22:19;;;;;;;17.08;3.08;;;;;;;;;;5008563;28;94371;-74
2022/10/03 01:25:06;;;;;;;18.42;3.22;;;;;;;;;;4995114;28;91616;-73
2022/10/03 01:30:21;;;;;;;20.95;2.80;;;;;;;;;;4997089;28;93089;-73
2022/10/03 01:30:28;;;;;;;10.35;2.65;;;;;;;;;;4995272;28;92452;-72
2022/10/03 01:33:02;;;;;;;9.95;2.63;;;;;;;;;;4992095;28;94849;-73
2022/10/03 01:35:47;;;;;;;15.75;2.45;;;;;;;;;;4997508;28;94479;-73
2022/10/03 01:38:26;;;;;;;12.70;4.10;;;;;;;;;;5014734;28;92299;-74
2022/10/03 01:41:12;;;;;;;11.80;3.30;;;;;;;;;;5015061;28;94308;-73
2022/10/03 01:43:53;;;;;;;15.80;2.58;;;;;;;;;;5014219;28;96485;-73
2022/10/03 01:46:19;;;;;;;16.70;2.92;;;;;;;;;;5014493;28;92295;-73
2022/10/03 01:48:46;;;;;;;7.57;2.38;;;;;;;;;;5014042;28;93935;-72
2022/10/03 01:51:20;;;;;;;11.35;2.58;;;;;;;;;;5017668;28;93652;-72
2022/10/03 01:53:58;;;;;;;16.17;2.58;;;;;;;;;;4998446;28;93359;-73
2022/10/03 01:56:44;;;;;;;10.43;2.30;;;;;;;;;;4993616;28;94588;-73
2022/10/03 01:59:18;;;;;;;12.73;2.80;;;;;;;;;;4992887;28;94665;-72
2022/10/03 02:02:00;;;;;;;13.43;2.72;;;;;;;;;;4994658;28;96330;-73
2022/10/03 02:04:26;;;;;;;12.83;2.53;;;;;;;;;;4993878;28;94705;-73
2022/10/03 02:06:59;;;;;;;14.05;2.90;;;;;;;;;;4994680;28;92334;-72
2022/10/03 02:09:35;;;;;;;13.77;2.45;;;;;;;;;;4994412;28;93149;-74
2022/10/03 02:12:06;;;;;;;13.05;2.60;;;;;;;;;;4994758;28;93417;-73
2022/10/03 02:14:38;;;;;;;16.15;2.70;;;;;;;;;;5001162;28;92435;-73
2022/10/03 02:17:13;;;;;;;17.58;4.50;;;;;;;;;;4997107;28;93330;-73
2022/10/03 02:19:58;;;;;;;18.95;3.15;;;;;;;;;;4997899;28;92358;-73
2022/10/03 02:22:50;;;;;;;18.40;2.65;;;;;;;;;;4997615;28;94119;-72
2022/10/03 02:25:23;;;;;;;13.88;3.00;;;;;;;;;;4994695;28;95859;-74
2022/10/03 02:27:51;;;;;;;13.30;2.80;;;;;;;;;;5012593;28;92406;-74
2022/10/03 02:30:37;;;;;;;13.90;2.70;;;;;;;;;;5017392;28;94144;-73
2022/10/03 02:33:06;;;;;;;12.23;2.38;;;;;;;;;;5017109;28;93203;-73
2022/10/03 02:35:53;;;;;;;16.63;2.17;;;;;;;;;;5007033;28;92438;-73
2022/10/03 02:38:33;;;;;;;15.00;2.78;;;;;;;;;;4974965;28;95395;-73
2022/10/03 02:41:12;;;;;;;13.25;3.42;;;;;;;;;;4997245;28;92466;-73
2022/10/03 02:43:57;;;;;;;10.98;2.60;;;;;;;;;;4984472;28;93935;-73
2022/10/03 02:46:23;;;;;;;22.70;3.72;;;;;;;;;;4996588;28;94614;-73
2022/10/03 02:49:09;;;;;;;20.38;2.35;;;;;;;;;;4997508;28;92425;-73
2022/10/03 02:51:53;;;;;;;9.80;2.60;;;;;;;;;;4994904;28;94713;-73
2022/10/03 02:54:41;;;;;;;18.95;2.60;;;;;;;;;;4996654;28;94269;-73
2022/10/03 02:57:24;;;;;;;12.32;2.78;;;;;;;;;;4997257;28;92344;-73
2022/10/03 02:59:50;;;;;;;12.20;2.45;;;;;;;;;;4999503;28;93968;-74
2022/10/03 03:02:31;;;;;;;11.38;3.10;;;;;;;;;;4997545;28;92485;-73
2022/10/03 03:04:57;;;;;;;13.35;2.80;;;;;;;;;;4997051;28;92953;-72
2022/10/03 03:07:31;;;;;;;9.32;2.70;;;;;;;;;;4996256;28;94155;-72
2022/10/03 03:10:12;;;;;;;14.65;2.50;;;;;;;;;;4997318;28;91679;-74
2022/10/03 03:12:41;;;;;;;12.43;3.75;;;;;;;;;;4996407;28;92369;-72
2022/10/03 03:15:08;;;;;;;10.32;2.10;;;;;;;;;;4996277;28;94146;-74
2022/10/03 03:17:41;;;;;;;20.33;2.55;;;;;;;;;;4996076;28;94846;-73
2022/10/03 03:20:14;;;;;;;11.57;2.58;;;;;;;;;;4995786;28;96348;-73
2022/10/03 03:22:53;;;;;;;8.18;2.38;;;;;;;;;;4999254;28;94251;-72
2022/10/03 03:25:38;;;;;;;11.63;2.28;;;;;;;;;;4995055;28;93785;-72
2022/10/03 03:28:12;;;;;;;9.63;2.30;;;;;;;;;;4995641;28;93129;-72
2022/10/03 03:30:43;;;;;;;9.75;2.40;;;;;;;;;;4995746;28;92488;-71
2022/10/03 03:33:12;;;;;;;8.35;3.13;;;;;;;;;;4996635;28;93166;-72
2022/10/03 03:35:45;;;;;;;19.17;3.17;;;;;;;;;;5009414;28;93372;-73
2022/10/03 03:38:23;;;;;;;9.80;2.50;;;;;;;;;;5016408;28;92514;-72
2022/10/03 03:41:01;;;;;;;15.20;2.60;;;;;;;;;;5015980;28;93902;-73
2022/10/03 03:43:46;;;;;;;14.93;2.78;;;;;;;;;;5014826;28;96839;-73
2022/10/03 03:46:12;;;;;;;11.63;2.53;;;;;;;;;;5019380;28;92769;-73
2022/10/03 03:48:39;;;;;;;19.77;2.95;;;;;;;;;;5015655;28;93072;-73
2022/10/03 03:51:14;;;;;;;14.10;2.40;;;;;;;;;;5015232;28;92395;-73
2022/10/03 03:53:40;;;;;;;15.82;2.53;;;;;;;;;;5016324;28;93023;-73
2022/10/03 03:56:18;;;;;;;13.07;2.60;;;;;;;;;;4998560;28;93325;-72
2022/10/03 03:59:02;;;;;;;25.73;2.53;;;;;;;;;;4996273;28;92408;-72
2022/10/03 04:01:48;;;;;;;10.25;2.53;;;;;;;;;;4996837;28;93008;-73
2022/10/03 04:04:33;;;;;;;11.70;2.70;;;;;;;;;;4994988;28;94369;-72
2022/10/03 04:06:59;;;;;;;12.90;2.30;;;;;;;;;;4995842;28;92326;-73
2022/10/03 04:09:44;;;;;;;9.60;2.35;;;;;;;;;;5008009;28;94766;-73
2022/10/03 04:12:10;;;;;;;18.40;2.78;;;;;;;;;;5005835;28;92456;-73
2022/10/03 04:14:39;;;;;;;10.80;2.65;;;;;;;;;;4996321;28;92899;-72
2022/10/03 04:20:10;;;;;;;;;;;;;;;;;;4996261;28;92448;-72
2022/10/03 04:22:51;;;;;;;11.07;2.08;;;;;;;;;;4996456;28;123619;-72
2022/10/03 04:25:39;;;;;;;24.77;3.10;;;;;;;;;;4996614;28;93587;-72
2022/10/03 04:28:25;;;;;;;12.80;4.00;;;;;;;;;;5005578;28;91658;-72
2022/10/03 04:30:54;;;;;;;12.23;2.58;;;;;;;;;;4995077;28;92330;-72
2022/10/03 04:33:40;;;;;;;12.10;2.72;;;;;;;;;;4998735;28;93230;-73
2022/10/03 04:36:27;;;;;;;7.75;2.15;;;;;;;;;;4993898;28;94755;-73
2022/10/03 04:39:09;;;;;;;11.52;2.90;;;;;;;;;;4994446;28;93992;-72
2022/10/03 04:42:00;;;;;;;17.37;3.63;;;;;;;;;;4995788;28;92362;-72
2022/10/03 04:44:42;;;;;;;11.90;1.92;;;;;;;;;;5014412;28;93876;-74
2022/10/03 04:47:15;;;;;;;16.42;3.13;;;;;;;;;;5015212;28;93289;-74
2022/10/03 04:49:51;;;;;;;10.90;2.65;;;;;;;;;;5015711;28;92320;-74
2022/10/03 04:52:27;;;;;;;13.57;2.80;;;;;;;;;;5014600;28;92642;-73
2022/10/03 04:55:18;;;;;;;7.78;2.25;;;;;;;;;;5013036;28;93409;-73
2022/10/03 04:57:56;;;;;;;10.23;2.25;;;;;;;;;;4995286;28;92435;-73
2022/10/03 05:00:49;;;;;;;10.93;2.28;;;;;;;;;;4995176;28;94312;-73
2022/10/03 05:03:21;;;;;;;5.45;2.15;;;;;;;;;;4952462;28;94958;-73
2022/10/03 05:05:55;;;;;;;5.75;2.33;;;;;;;;;;4974874;28;96259;-73
2022/10/03 05:08:36;;;;;;;13.45;3.38;;;;;;;;;;4975428;28;94231;-73
2022/10/03 05:11:38;;;;;;;10.48;2.35;;;;;;;;;;4977949;28;92449;-73
2022/10/03 05:14:24;;;;;;;6.97;2.23;;;;;;;;;;4952407;28;93919;-73
2022/10/03 05:16:53;;;;;;;9.90;2.75;;;;;;;;;;4997951;28;94272;-73
2022/10/03 05:19:32;;;;;;;13.07;2.60;;;;;;;;;;5017154;28;92376;-73
2022/10/03 05:22:03;;;;;;;7.30;2.25;;;;;;;;;;5015197;28;91813;-73
2022/10/03 05:24:44;;;;;;;11.23;2.70;;;;;;;;;;5014796;28;92442;-73
2022/10/03 05:27:16;;;;;;;9.20;2.35;;;;;;;;;;5014202;28;92885;-73
2022/10/03 05:30:01;;;;;;;10.98;2.75;;;;;;;;;;5013391;28;95675;-73
2022/10/03 05:32:48;;;;;;;8.45;2.40;;;;;;;;;;4982843;28;92456;-73
2022/10/03 05:35:17;;;;;;;7.22;2.38;;;;;;;;;;4984729;28;93766;-73
2022/10/03 05:38:03;;;;;;;10.85;2.47;;;;;;;;;;4994210;28;93964;-76
2022/10/03 05:40:32;;;;;;;14.73;2.70;;;;;;;;;;4992102;28;92435;-74
2022/10/03 05:43:01;;;;;;;10.95;2.45;;;;;;;;;;4995345;28;93162;-73
2022/10/03 05:45:29;;;;;;;10.75;2.53;;;;;;;;;;4993880;28;92721;-72
2022/10/03 05:48:13;;;;;;;6.07;2.30;;;;;;;;;;4991600;28;93826;-73
2022/10/03 05:50:58;;;;;;;17.08;2.95;;;;;;;;;;4994010;28;94171;-73
2022/10/03 05:53:33;;;;;;;10.63;2.20;;;;;;;;;;4994546;28;92487;-73
2022/10/03 05:56:02;;;;;;;9.80;2.65;;;;;;;;;;4990552;28;95952;-73
2022/10/03 05:58:37;;;;;;;7.35;2.47;;;;;;;;;;4992344;28;95238;-73
2022/10/03 06:01:24;;;;;;;5.78;2.10;;;;;;;;;;4991261;28;92444;-74
2022/10/03 06:04:11;;;;;;;7.63;2.03;;;;;;;;;;4993920;28;93501;-74
2022/10/03 06:07:11;;;;;;;8.32;2.67;;;;;;;;;;4997664;28;93316;-73
2022/10/03 06:09:49;;;;;;;12.15;3.08;;;;;;;;;;4982307;28;93878;-73
2022/10/03 06:12:20;;;;;;;11.32;2.50;;;;;;;;;;4992017;28;93989;-73
2022/10/03 06:15:02;;;;;;;9.55;2.55;;;;;;;;;;4994607;28;91657;-74
2022/10/03 06:17:43;;;;;;;10.40;2.50;;;;;;;;;;4992758;28;94393;-73
2022/10/03 06:20:23;;;;;;;24.98;3.80;;;;;;;;;;4990703;28;92440;-74
2022/10/03 06:22:58;;;;;;;6.60;2.65;;;;;;;;;;4988203;28;96332;-73
2022/10/03 06:25:49;;;;;;;7.53;2.65;;;;;;;;;;4994855;28;96335;-75
2022/10/03 06:28:34;;;;;;;6.60;2.72;;;;;;;;;;4991030;28;92434;-74
2022/10/03 06:31:20;;;;;;;7.90;2.90;;;;;;;;;;4996216;28;92762;-74
2022/10/03 06:33:46;;;;;;;10.15;2.72;;;;;;;;;;4994009;28;94188;-74
2022/10/03 06:36:15;;;;;;;10.40;3.30;;;;;;;;;;4993953;28;92311;-74
2022/10/03 06:38:45;;;;;;;8.98;3.38;;;;;;;;;;4993586;28;93177;-74
2022/10/03 06:41:14;;;;;;;6.88;3.03;;;;;;;;;;4994585;28;93358;-74
2022/10/03 06:43:40;;;;;;;14.73;4.43;;;;;;;;;;4993441;28;92514;-74
2022/10/03 06:46:22;;;;;;;9.65;3.60;;;;;;;;;;5003028;28;93354;-74
2022/10/03 06:48:48;;;;;;;11.25;3.72;;;;;;;;;;5010578;28;96769;-74
2022/10/03 06:51:14;;;;;;;11.32;3.67;;;;;;;;;;5009045;28;92826;-74
2022/10/03 06:53:50;;;;;;;11.93;4.25;;;;;;;;;;5016562;28;94009;-74
2022/10/03 06:56:18;;;;;;;12.70;3.30;;;;;;;;;;5014027;28;93115;-74
2022/10/03 06:59:04;;;;;;;12.50;4.05;;;;;;;;;;5013133;28;94177;-74
2022/10/03 07:01:49;;;;;;;16.40;3.40;;;;;;;;;;4997674;28;93170;-74
2022/10/03 07:04:34;;;;;;;15.32;4.47;;;;;;;;;;4996648;28;92727;-75
2022/10/03 07:07:19;;;;;;;14.02;3.45;;;;;;;;;;4996675;28;92733;-75
2022/10/03 07:10:12;;;;;;;13.60;3.92;;;;;;;;;;4997208;28;93603;-75
2022/10/03 07:12:43;;;;;;;11.63;4.25;;;;;;;;;;4986639;28;93002;-75
2022/10/03 07:15:13;;;;;;;12.25;4.32;;;;;;;;;;4993844;28;94756;-75
2022/10/03 07:17:46;;;;;;;11.23;3.60;;;;;;;;;;4986196;28;92960;-75
2022/10/03 07:20:17;;;;;;;11.32;3.28;;;;;;;;;;4995762;28;92778;-75
2022/10/03 07:22:46;;;;;;;19.95;3.45;;;;;;;;;;4996556;28;93540;-75
2022/10/03 07:25:19;;;;;;;9.32;3.08;;;;;;;;;;4996585;28;92351;-74
2022/10/03 07:27:45;;;;;;;12.60;3.20;;;;;;;;;;4996161;28;93203;-75
2022/10/03 07:30:18;;;;;;;12.27;3.42;;;;;;;;;;4996413;28;94256;-74
2022/10/03 07:32:47;;;;;;;15.20;2.72;;;;;;;;;;4997365;28;91733;-74
2022/10/03 07:35:20;;;;;;;13.57;3.50;;;;;;;;;;4995335;28;93554;-74
2022/10/03 07:41:06;;;;;;;15.40;4.57;;;;;;;;;;4994675;28;94810;-74
2022/10/03 07:43:32;;;;;;;9.43;3.75;;;;;;;;;;4996618;28;94263;-75
2022/10/03 07:46:08;;;;;;;12.27;3.85;;;;;;;;;;4996148;28;92802;-75
2022/10/03 07:48:49;;;;;;;18.38;3.78;;;;;;;;;;4996074;28;93981;-75
2022/10/03 07:51:20;;;;;;;13.30;4.10;;;;;;;;;;4996352;28;94510;-75
2022/10/03 07:54:13;;;;;;;14.50;3.90;;;;;;;;;;4996578;28;92522;-75
2022/10/03 07:57:12;;;;;;;9.65;2.90;;;;;;;;;;4996237;28;92849;-75
2022/10/03 07:59:41;;;;;;;12.45;3.40;;;;;;;;;;4973769;28;93307;-78
2022/10/03 08:02:25;;;;;;;4.78;2.42;;;;;;;;;;4998404;28;92481;-79
2022/10/03 08:05:00;;;;;;;6.88;2.70;;;;;;;;;;4996367;28;94214;-75
2022/10/03 08:07:42;;;;;;;8.43;3.15;;;;;;;;;;4994729;28;94832;-75
2022/10/03 08:10:12;;;;;;;10.15;2.85;;;;;;;;;;4991401;28;96162;-75
2022/10/03 08:12:54;;;;;;;8.43;2.88;;;;;;;;;;4996010;28;94294;-75
2022/10/03 08:15:25;;;;;;;16.65;3.60;;;;;;;;;;4995111;28;92418;-75
2022/10/03 08:17:51;;;;;;;9.10;3.05;;;;;;;;;;4996318;28;94021;-75
2022/10/03 08:20:35;;;;;;;9.70;3.08;;;;;;;;;;4995725;28;94131;-75
2022/10/03 08:23:22;;;;;;;9.82;3.90;;;;;;;;;;4994339;28;92442;-75
2022/10/03 08:26:02;;;;;;;6.30;2.83;;;;;;;;;;4999290;28;94057;-75
2022/10/03 08:28:34;;;;;;;8.25;2.65;;;;;;;;;;4995405;28;92441;-75
2022/10/03 08:31:26;;;;;;;13.52;3.58;;;;;;;;;;4994854;28;93431;-75
2022/10/03 08:34:10;;;;;;;17.08;3.47;;;;;;;;;;4993808;28;94822;-75
2022/10/03 08:36:49;;;;;;;14.90;3.35;;;;;;;;;;4994825;28;92420;-75
2022/10/03 08:39:21;;;;;;;9.70;3.23;;;;;;;;;;4995732;28;93132;-75
2022/10/03 08:42:06;;;;;;;11.77;2.90;;;;;;;;;;4995438;28;94438;-75
2022/10/03 08:44:42;;;;;;;6.13;1.98;;;;;;;;;;4995151;28;92437;-75
2022/10/03 08:47:24;;;;;;;8.18;1.90;;;;;;;;;;4995355;28;92947;-75
2022/10/03 08:50:03;;;;;;;13.63;3.08;;;;;;;;;;4998577;28;93840;-75
2022/10/03 08:52:47;;;;;;;12.95;2.30;;;;;;;;;;4995422;28;93887;-75
2022/10/03 08:55:30;;;;;;;4.47;1.90;;;;;;;;;;4995672;28;92341;-75
2022/10/03 08:58:15;;;;;;;8.15;2.28;;;;;;;;;;4995611;28;92466;-75
2022/10/03 09:01:00;;;;;;;8.35;1.90;;;;;;;;;;4994461;28;94791;-74
2022/10/03 09:03:44;;;;;;;15.25;2.58;;;;;;;;;;4975645;28;94135;-75
2022/10/03 09:06:26;;;;;;;14.75;2.40;;;;;;;;;;4986819;28;93338;-75
2022/10/03 09:09:11;;;;;;;13.77;2.63;;;;;;;;;;4995402;28;93905;-74
2022/10/03 09:11:40;;;;;;;10.98;2.40;;;;;;;;;;4994432;28;93458;-75
2022/10/03 09:14:21;;;;;;;8.45;2.05;;;;;;;;;;4997877;28;92378;-75
2022/10/03 09:16:57;;;;;;;7.82;2.95;;;;;;;;;;4995639;28;92906;-75
2022/10/03 09:19:43;;;;;;;8.70;2.00;;;;;;;;;;4995012;28;91697;-75
2022/10/03 09:22:10;;;;;;;9.23;2.25;;;;;;;;;;4993930;28;93190;-75
2022/10/03 09:24:42;;;;;;;7.63;1.80;;;;;;;;;;4994766;28;94396;-76
2022/10/03 09:27:24;;;;;;;7.15;2.47;;;;;;;;;;4992585;28;94830;-75
2022/10/03 09:29:50;;;;;;;3.47;1.90;;;;;;;;;;4995190;28;96180;-75
2022/10/03 09:32:40;;;;;;;5.45;1.88;;;;;;;;;;4994577;28;93087;-75
2022/10/03 09:35:20;;;;;;;11.32;2.42;;;;;;;;;;4997528;28;92459;-75
2022/10/03 09:37:53;;;;;;;7.28;2.08;;;;;;;;;;4994860;28;94295;-74
2022/10/03 09:40:19;;;;;;;;;;;;;;;;;;4994207;28;92669;-74
2022/10/03 09:42:53;;;;;;;4.20;1.95;;;;;;;;;;4995277;28;123843;-74
2022/10/03 09:45:38;;;;;;;10.13;2.55;;;;;;;;;;4994720;28;92578;-73
2022/10/03 09:48:13;;;;;;;13.23;2.30;;;;;;;;;;4993724;28;92407;-74
2022/10/03 09:50:54;;;;;;;6.18;1.75;;;;;;;;;;4995314;28;93160;-74
2022/10/03 09:53:44;;;;;;;5.70;2.25;;;;;;;;;;4992246;28;95600;-74
2022/10/03 09:56:10;;;;;;;7.93;2.35;;;;;;;;;;4994128;28;92569;-74
2022/10/03 09:58:51;;;;;;;14.10;2.63;;;;;;;;;;4995690;28;92450;-74
2022/10/03 10:01:29;;;;;;;2.35;1.60;;;;;;;;;;4993247;28;92444;-74
2022/10/03 10:04:16;;;;;;;6.10;1.98;;;;;;;;;;4994563;28;93840;-74
2022/10/03 10:07:14;;;;;;;4.07;1.48;;;;;;;;;;4994264;28;94493;-74
2022/10/03 10:10:16;;;;;;;6.75;2.00;;;;;;;;;;4993853;28;93166;-74
2022/10/03 10:12:57;;;;;;;7.20;2.35;;;;;;;;;;4995254;28;93325;-74
2022/10/03 10:15:44;;;;;;;6.72;2.30;;;;;;;;;;4991939;28;93396;-74
2022/10/03 10:18:25;;;;;;;10.00;1.90;;;;;;;;;;4994073;28;92411;-75
2022/10/03 10:21:10;;;;;;;6.93;1.83;;;;;;;;;;4992941;28;94912;-74
2022/10/03 10:23:56;;;;;;;9.85;1.98;;;;;;;;;;4996056;28;94130;-74
2022/10/03 10:26:41;;;;;;;5.53;1.90;;;;;;;;;;4994585;28;92855;-74
2022/10/03 10:29:26;;;;;;;7.68;1.90;;;;;;;;;;4992688;28;93039;-74
2022/10/03 10:31:53;;;;;;;7.13;2.20;;;;;;;;;;4994397;28;92453;-74
2022/10/03 10:34:22;;;;;;;7.30;1.85;;;;;;;;;;4995386;28;94305;-74
2022/10/03 10:36:58;;;;;;;5.15;1.65;;;;;;;;;;4995967;28;92574;-74
2022/10/03 10:39:47;;;;;;;7.75;1.77;;;;;;;;;;4998214;28;91717;-74
2022/10/03 10:42:25;;;;;;;6.53;1.88;;;;;;;;;;4997524;28;93224;-74
2022/10/03 10:45:10;;;;;;;3.58;1.67;;;;;;;;;;4996746;28;93434;-74
2022/10/03 10:47:55;;;;;;;6.07;2.50;;;;;;;;;;4999135;28;94800;-74
2022/10/03 10:50:30;;;;;;;8.70;2.40;;;;;;;;;;4996629;28;93834;-74
2022/10/03 10:53:15;;;;;;;5.43;2.20;;;;;;;;;;4997455;28;92494;-74
2022/10/03 10:55:42;;;;;;;5.35;1.60;;;;;;;;;;4996959;28;94191;-74
2022/10/03 10:58:26;;;;;;;4.28;1.88;;;;;;;;;;4995980;28;94181;-74
2022/10/03 11:01:11;;;;;;;6.25;2.50;;;;;;;;;;4997454;28;92475;-74
2022/10/03 11:04:02;;;;;;;11.68;2.67;;;;;;;;;;4997330;28;92469;-75
2022/10/03 11:06:42;;;;;;;7.40;1.77;;;;;;;;;;4997556;28;93754;-75
2022/10/03 11:09:11;;;;;;;12.73;1.83;;;;;;;;;;4997028;28;92358;-75
2022/10/03 11:11:50;;;;;;;9.93;2.00;;;;;;;;;;4999607;28;94145;-74
2022/10/03 11:14:20;;;;;;;6.05;2.03;;;;;;;;;;4995052;28;94778;-75
2022/10/03 11:17:05;;;;;;;5.25;1.50;;;;;;;;;;4997048;28;96958;-74
2022/10/03 11:19:50;;;;;;;7.15;2.35;;;;;;;;;;4996478;28;94117;-73
2022/10/03 11:22:35;;;;;;;6.95;2.05;;;;;;;;;;4996350;28;92461;-73
2022/10/03 11:25:23;;;;;;;7.78;1.98;;;;;;;;;;4996082;28;93004;-73
2022/10/03 11:28:01;;;;;;;5.93;2.30;;;;;;;;;;4996906;28;93332;-73
2022/10/03 11:30:30;;;;;;;10.05;2.20;;;;;;;;;;4997007;28;92364;-73
2022/10/03 11:33:04;;;;;;;14.52;2.47;;;;;;;;;;4999084;28;93088;-73
2022/10/03 11:35:33;;;;;;;10.40;2.40;;;;;;;;;;4997049;28;92460;-73
2022/10/03 11:38:10;;;;;;;5.78;2.40;;;;;;;;;;4996305;28;93868;-73
2022/10/03 11:40:55;;;;;;;5.57;1.90;;;;;;;;;;4994584;28;96065;-73
2022/10/03 11:43:44;;;;;;;6.47;1.85;;;;;;;;;;4996977;28;92463;-73
2022/10/03 11:46:19;;;;;;;9.85;2.20;;;;;;;;;;4995433;28;93188;-74
2022/10/03 11:48:51;;;;;;;11.48;2.65;;;;;;;;;;4996584;28;94161;-74
2022/10/03 11:51:35;;;;;;;11.60;2.40;;;;;;;;;;4995974;28;93094;-74
2022/10/03 11:54:04;;;;;;;6.85;2.13;;;;;;;;;;4995248;28;93940;-74
2022/10/03 11:57:01;;;;;;;7.82;1.98;;;;;;;;;;4999503;28;93926;-75
2022/10/03 11:59:50;;;;;;;17.13;2.47;;;;;;;;;;4996284;28;92840;-74
2022/10/03 12:02:37;;;;;;;8.75;1.63;;;;;;;;;;4983774;28;92959;-75
2022/10/03 12:05:13;;;;;;;7.15;2.13;;;;;;;;;;4996240;28;92816;-75
2022/10/03 12:10:45;;;;;;;9.38;2.47;;;;;;;;;;4996344;28;93406;-75
2022/10/03 12:13:27;;;;;;;5.15;2.55;;;;;;;;;;4996003;28;92442;-75
2022/10/03 12:15:56;;;;;;;9.52;3.00;;;;;;;;;;4995701;28;93911;-73
2022/10/03 12:18:23;;;;;;;10.75;1.95;;;;;;;;;;4995863;28;94229;-75
2022/10/03 12:20:58;;;;;;;8.75;1.95;;;;;;;;;;4998954;28;92316;-75
2022/10/03 12:23:40;;;;;;;11.45;2.78;;;;;;;;;;4994999;28;93533;-75
2022/10/03 12:26:09;;;;;;;11.25;2.17;;;;;;;;;;4994805;28;92633;-73
2022/10/03 12:28:40;;;;;;;12.88;2.95;;;;;;;;;;4994952;28;93622;-73
2022/10/03 12:31:25;;;;;;;10.25;2.65;;;;;;;;;;4995926;28;93432;-73
2022/10/03 12:34:07;;;;;;;7.80;2.28;;;;;;;;;;4994111;28;94960;-73
2022/10/03 12:36:49;;;;;;;10.30;2.40;;;;;;;;;;4995532;28;94169;-73
2022/10/03 12:39:33;;;;;;;7.17;3.07;;;;;;;;;;4995626;28;94063;-73
2022/10/03 12:42:09;;;;;;;10.95;2.08;;;;;;;;;;4995651;28;92469;-73
2022/10/03 12:44:36;;;;;;;10.38;2.65;;;;;;;;;;4994805;28;94389;-74
2022/10/03 12:47:10;;;;;;;7.00;2.47;;;;;;;;;;4989921;28;92673;-74
2022/10/03 12:49:57;;;;;;;8.60;2.50;;;;;;;;;;4992931;28;93865;-73
2022/10/03 12:52:28;;;;;;;18.35;3.60;;;;;;;;;;4994461;28;93301;-73
2022/10/03 12:55:15;;;;;;;7.72;2.20;;;;;;;;;;4992422;28;92443;-73
2022/10/03 12:57:47;;;;;;;6.50;2.17;;;;;;;;;;4994949;28;92808;-73
2022/10/03 13:00:19;;;;;;;13.68;2.28;;;;;;;;;;4993426;28;95560;-73
2022/10/03 13:02:50;;;;;;;12.10;2.63;;;;;;;;;;4991073;28;95049;-73
2022/10/03 13:05:30;;;;;;;11.32;2.42;;;;;;;;;;4990111;28;94616;-73
2022/10/03 13:08:01;;;;;;;6.65;2.17;;;;;;;;;;4978485;28;93497;-73
2022/10/03 13:10:33;;;;;;;8.50;2.40;;;;;;;;;;4981689;28;92838;-73
2022/10/03 13:13:00;;;;;;;;;;;;;;;;;;4993329;28;94481;-73
2022/10/03 13:15:30;;;;;;;9.13;2.35;;;;;;;;;;4994868;28;116843;-73
2022/10/03 13:18:03;;;;;;;10.73;2.58;;;;;;;;;;4992130;28;93265;-73
2022/10/03 13:20:38;;;;;;;9.93;2.53;;;;;;;;;;4991696;28;94158;-74
2022/10/03 13:23:23;;;;;;;9.98;2.92;;;;;;;;;;4993625;28;92777;-73
2022/10/03 13:25:53;;;;;;;6.15;2.28;;;;;;;;;;4990770;28;96311;-74
2022/10/03 13:28:32;;;;;;;9.95;2.35;;;;;;;;;;4984772;28;94419;-73
2022/10/03 13:31:08;;;;;;;8.25;2.50;;;;;;;;;;4997738;28;92443;-74
2022/10/03 13:33:40;;;;;;;15.07;2.70;;;;;;;;;;4994076;28;93406;-74
2022/10/03 13:36:17;;;;;;;9.17;2.23;;;;;;;;;;4994855;28;92484;-75
2022/10/03 13:38:50;;;;;;;11.27;2.50;;;;;;;;;;4992846;28;92971;-73
2022/10/03 13:41:16;;;;;;;7.82;2.75;;;;;;;;;;4994710;28;93585;-73
2022/10/03 13:43:56;;;;;;;10.68;2.35;;;;;;;;;;4995068;28;91713;-73
2022/10/03 13:46:25;;;;;;;10.90;2.47;;;;;;;;;;4994234;28;92707;-73
2022/10/03 13:48:57;;;;;;;10.68;2.78;;;;;;;;;;4994661;28;94123;-73
2022/10/03 13:51:33;;;;;;;7.28;2.50;;;;;;;;;;4996063;28;94785;-73
2022/10/03 13:54:00;;;;;;;12.18;2.85;;;;;;;;;;4993444;28;93372;-73
2022/10/03 13:56:26;;;;;;;8.93;2.60;;;;;;;;;;4994777;28;92397;-73
2022/10/03 13:59:02;;;;;;;13.18;2.78;;;;;;;;;;4994221;28;93100;-73
2022/10/03 14:01:41;;;;;;;12.95;3.30;;;;;;;;;;4993734;28;93146;-73
2022/10/03 14:04:24;;;;;;;9.13;3.10;;;;;;;;;;4994333;28;92748;-73
2022/10/03 14:07:10;;;;;;;5.75;2.38;;;;;;;;;;4993849;28;93819;-73
2022/10/03 14:09:36;;;;;;;12.23;2.92;;;;;;;;;;4997212;28;93507;-73
2022/10/03 14:12:09;;;;;;;10.98;2.80;;;;;;;;;;4997533;28;92430;-73
2022/10/03 14:14:35;;;;;;;12.23;3.33;;;;;;;;;;5000132;28;92785;-73
2022/10/03 14:17:08;;;;;;;9.23;3.03;;;;;;;;;;4995735;28;94696;-74
2022/10/03 14:19:40;;;;;;;12.40;3.05;;;;;;;;;;4997746;28;95433;-73
2022/10/03 14:22:10;;;;;;;12.63;3.10;;;;;;;;;;4996807;28;94131;-73
2022/10/03 14:24:48;;;;;;;9.98;3.10;;;;;;;;;;4997762;28;92416;-73
2022/10/03 14:27:22;;;;;;;9.70;2.75;;;;;;;;;;4996060;28;93266;-73
2022/10/03 14:30:01;;;;;;;6.95;2.70;;;;;;;;;;4997128;28;93553;-73
2022/10/03 14:32:56;;;;;;;8.05;2.65;;;;;;;;;;4998053;28;92357;-73
2022/10/03 14:35:26;;;;;;;9.82;2.70;;;;;;;;;;4977633;28;93971;-73
2022/10/03 14:38:00;;;;;;;8.25;2.38;;;;;;;;;;5000864;28;93329;-73
2022/10/03 14:40:27;;;;;;;16.15;3.00;;;;;;;;;;4997453;28;93027;-72
2022/10/03 14:42:57;;;;;;;10.90;3.10;;;;;;;;;;4995265;28;95725;-72
2022/10/03 14:45:25;;;;;;;8.40;2.75;;;;;;;;;;4997726;28;92370;-73
2022/10/03 14:47:54;;;;;;;6.47;2.33;;;;;;;;;;4997595;28;93075;-72
2022/10/03 14:50:25;;;;;;;11.23;2.83;;;;;;;;;;4984169;28;92867;-73
2022/10/03 14:52:51;;;;;;;16.23;2.80;;;;;;;;;;4990884;28;93069;-76
2022/10/03 14:55:19;;;;;;;9.77;2.63;;;;;;;;;;4997002;28;93228;-73
2022/10/03 14:57:48;;;;;;;8.55;2.50;;;;;;;;;;4988781;28;94041;-72
2022/10/03 15:00:42;;;;;;;11.90;2.67;;;;;;;;;;4997615;28;91588;-73
2022/10/03 15:03:14;;;;;;;10.55;2.60;;;;;;;;;;4992987;28;94058;-73
2022/10/03 15:05:40;;;;;;;;;;;;;;;;;;4987706;28;93923;-74
2022/10/03 15:08:14;;;;;;;11.95;3.97;;;;;;;;;;4995061;28;123821;-72
2022/10/03 15:10:42;;;;;;;9.90;2.05;;;;;;;;;;4995526;28;94194;-72
2022/10/03 15:13:09;;;;;;;6.80;1.92;;;;;;;;;;4995895;28;94053;-73
2022/10/03 15:15:38;;;;;;;7.70;2.97;;;;;;;;;;4997273;28;93645;-72
2022/10/03 15:18:06;;;;;;;7.82;1.95;;;;;;;;;;4994776;28;94488;-73
2022/10/03 15:20:35;;;;;;;8.48;2.72;;;;;;;;;;4994343;28;92564;-72
2022/10/03 15:23:06;;;;;;;14.23;3.08;;;;;;;;;;4999182;28;93816;-72
2022/10/03 15:25:33;;;;;;;12.30;2.40;;;;;;;;;;4996982;28;91726;-73
2022/10/03 15:28:03;;;;;;;8.95;2.47;;;;;;;;;;4993164;28;93735;-73
2022/10/03 15:30:32;;;;;;;6.28;2.40;;;;;;;;;;4992543;28;94073;-73
2022/10/03 15:33:20;;;;;;;5.05;2.25;;;;;;;;;;4991049;28;96107;-73
2022/10/03 15:35:49;;;;;;;8.48;2.20;;;;;;;;;;4994308;28;96494;-73
2022/10/03 15:38:19;;;;;;;6.95;1.70;;;;;;;;;;4995490;28;94271;-72
2022/10/03 15:40:54;;;;;;;7.47;2.15;;;;;;;;;;4996951;28;92453;-72
2022/10/03 15:43:29;;;;;;;7.35;2.58;;;;;;;;;;4994403;28;94839;-73